sensor_id;sensor_type;location;lat;lon;timestamp;P1;durP1;ratioP1;P2;durP2;ratioP2
38972;SDS011;25333;50.762;4.470;2022-09-21T00:00:23;4.43;;;1.92;;
38972;SDS011;25333;50.762;4.470;2022-09-21T00:02:50;5.85;;;2.03;;
38972;SDS011;25333;50.762;4.470;2022-09-21T00:05:19;4.97;;;1.70;;
38972;SDS011;25333;50.762;4.470;2022-09-21T00:07:44;3.17;;;1.70;;
38972;SDS011;25333;50.762;4.470;2022-09-21T00:10:10;4.83;;;1.90;;
38972;SDS011;25333;50.762;4.470;2022-09-21T00:12:36;3.65;;;1.60;;
38972;SDS011;25333;50.762;4.470;2022-09-21T00:15:11;5.18;;;1.58;;
38972;SDS011;25333;50.762;4.470;2022-09-21T00:17:37;4.68;;;1.58;;
38972;SDS011;25333;50.762;4.470;2022-09-21T00:20:03;6.07;;;2.73;;
38972;SDS011;25333;50.762;4.470;2022-09-21T00:22:33;5.05;;;2.17;;
38972;SDS011;25333;50.762;4.470;2022-09-21T00:25:00;4.10;;;2.00;;
38972;SDS011;25333;50.762;4.470;2022-09-21T00:27:27;4.15;;;2.15;;
38972;SDS011;25333;50.762;4.470;2022-09-21T00:29:58;5.30;;;1.85;;
38972;SDS011;25333;50.762;4.470;2022-09-21T00:32:26;3.00;;;1.58;;
38972;SDS011;25333;50.762;4.470;2022-09-21T00:34:51;3.73;;;1.50;;
38972;SDS011;25333;50.762;4.470;2022-09-21T00:37:20;4.05;;;1.98;;
38972;SDS011;25333;50.762;4.470;2022-09-21T00:39:46;3.30;;;1.70;;
38972;SDS011;25333;50.762;4.470;2022-09-21T00:42:18;3.22;;;1.65;;
38972;SDS011;25333;50.762;4.470;2022-09-21T00:44:44;3.72;;;1.88;;
38972;SDS011;25333;50.762;4.470;2022-09-21T00:47:11;4.43;;;1.60;;
38972;SDS011;25333;50.762;4.470;2022-09-21T00:49:40;3.40;;;1.85;;
38972;SDS011;25333;50.762;4.470;2022-09-21T00:52:08;4.38;;;1.58;;
38972;SDS011;25333;50.762;4.470;2022-09-21T00:54:43;3.88;;;1.92;;
38972;SDS011;25333;50.762;4.470;2022-09-21T00:57:12;3.90;;;1.53;;
38972;SDS011;25333;50.762;4.470;2022-09-21T00:59:39;2.97;;;1.17;;
38972;SDS011;25333;50.762;4.470;2022-09-21T01:02:07;3.58;;;1.58;;
38972;SDS011;25333;50.762;4.470;2022-09-21T01:04:33;3.90;;;2.10;;
38972;SDS011;25333;50.762;4.470;2022-09-21T01:07:00;3.72;;;1.70;;
38972;SDS011;25333;50.762;4.470;2022-09-21T01:09:29;3.90;;;1.42;;
38972;SDS011;25333;50.762;4.470;2022-09-21T01:30:41;3.08;;;2.00;;
38972;SDS011;25333;50.762;4.470;2022-09-21T01:36:13;4.30;;;1.52;;
38972;SDS011;25333;50.762;4.470;2022-09-21T01:38:49;3.92;;;1.90;;
38972;SDS011;25333;50.762;4.470;2022-09-21T01:41:19;1.92;;;1.38;;
38972;SDS011;25333;50.762;4.470;2022-09-21T01:43:51;1.80;;;1.38;;
38972;SDS011;25333;50.762;4.470;2022-09-21T01:46:20;5.97;;;2.10;;
38972;SDS011;25333;50.762;4.470;2022-09-21T01:48:51;3.03;;;1.50;;
38972;SDS011;25333;50.762;4.470;2022-09-21T01:51:20;3.58;;;1.33;;
38972;SDS011;25333;50.762;4.470;2022-09-21T01:53:55;2.90;;;1.58;;
38972;SDS011;25333;50.762;4.470;2022-09-21T01:56:35;3.58;;;1.55;;
38972;SDS011;25333;50.762;4.470;2022-09-21T02:01:47;3.28;;;1.45;;
38972;SDS011;25333;50.762;4.470;2022-09-21T02:04:21;3.58;;;1.45;;
38972;SDS011;25333;50.762;4.470;2022-09-21T02:06:48;2.60;;;1.20;;
38972;SDS011;25333;50.762;4.470;2022-09-21T02:09:14;5.22;;;2.00;;
38972;SDS011;25333;50.762;4.470;2022-09-21T02:11:41;2.22;;;1.17;;
38972;SDS011;25333;50.762;4.470;2022-09-21T02:14:11;2.67;;;1.75;;
38972;SDS011;25333;50.762;4.470;2022-09-21T02:17:00;2.67;;;1.55;;
38972;SDS011;25333;50.762;4.470;2022-09-21T02:19:54;2.85;;;0.90;;
38972;SDS011;25333;50.762;4.470;2022-09-21T02:25:34;4.18;;;1.45;;
38972;SDS011;25333;50.762;4.470;2022-09-21T02:28:46;4.13;;;1.63;;
38972;SDS011;25333;50.762;4.470;2022-09-21T02:33:56;2.08;;;1.60;;
38972;SDS011;25333;50.762;4.470;2022-09-21T02:36:30;2.80;;;1.40;;
38972;SDS011;25333;50.762;4.470;2022-09-21T02:39:11;2.92;;;1.40;;
38972;SDS011;25333;50.762;4.470;2022-09-21T02:41:49;1.87;;;1.00;;
38972;SDS011;25333;50.762;4.470;2022-09-21T02:44:26;3.00;;;1.13;;
38972;SDS011;25333;50.762;4.470;2022-09-21T02:47:00;2.08;;;1.40;;
38972;SDS011;25333;50.762;4.470;2022-09-21T02:49:29;3.17;;;1.38;;
38972;SDS011;25333;50.762;4.470;2022-09-21T02:51:59;2.28;;;1.50;;
38972;SDS011;25333;50.762;4.470;2022-09-21T02:54:29;2.75;;;1.30;;
38972;SDS011;25333;50.762;4.470;2022-09-21T02:56:57;3.28;;;1.13;;
38972;SDS011;25333;50.762;4.470;2022-09-21T02:59:24;2.88;;;1.40;;
38972;SDS011;25333;50.762;4.470;2022-09-21T03:01:51;3.42;;;1.67;;
38972;SDS011;25333;50.762;4.470;2022-09-21T03:04:18;3.85;;;1.65;;
38972;SDS011;25333;50.762;4.470;2022-09-21T03:06:43;3.93;;;1.63;;
38972;SDS011;25333;50.762;4.470;2022-09-21T03:09:09;1.92;;;1.20;;
38972;SDS011;25333;50.762;4.470;2022-09-21T03:11:35;2.67;;;1.40;;
38972;SDS011;25333;50.762;4.470;2022-09-21T03:14:00;3.38;;;1.10;;
38972;SDS011;25333;50.762;4.470;2022-09-21T03:16:30;3.33;;;1.40;;
38972;SDS011;25333;50.762;4.470;2022-09-21T03:18:56;7.53;;;1.10;;
38972;SDS011;25333;50.762;4.470;2022-09-21T03:21:21;2.50;;;1.33;;
38972;SDS011;25333;50.762;4.470;2022-09-21T03:23:47;2.60;;;1.20;;
38972;SDS011;25333;50.762;4.470;2022-09-21T03:26:12;2.37;;;1.30;;
38972;SDS011;25333;50.762;4.470;2022-09-21T03:28:38;2.20;;;1.07;;
38972;SDS011;25333;50.762;4.470;2022-09-21T03:31:04;3.17;;;1.13;;
38972;SDS011;25333;50.762;4.470;2022-09-21T03:33:30;3.67;;;1.33;;
38972;SDS011;25333;50.762;4.470;2022-09-21T03:35:56;3.67;;;1.33;;
38972;SDS011;25333;50.762;4.470;2022-09-21T03:38:22;4.40;;;1.17;;
38972;SDS011;25333;50.762;4.470;2022-09-21T03:40:49;2.20;;;1.10;;
38972;SDS011;25333;50.762;4.470;2022-09-21T03:43:15;2.97;;;1.20;;
38972;SDS011;25333;50.762;4.470;2022-09-21T03:45:41;1.80;;;1.10;;
38972;SDS011;25333;50.762;4.470;2022-09-21T03:48:07;3.55;;;1.10;;
38972;SDS011;25333;50.762;4.470;2022-09-21T03:50:35;1.75;;;1.08;;
38972;SDS011;25333;50.762;4.470;2022-09-21T03:53:01;1.85;;;1.10;;
38972;SDS011;25333;50.762;4.470;2022-09-21T03:55:26;5.40;;;1.30;;
38972;SDS011;25333;50.762;4.470;2022-09-21T03:57:53;3.30;;;0.98;;
38972;SDS011;25333;50.762;4.470;2022-09-21T04:00:19;3.78;;;1.38;;
38972;SDS011;25333;50.762;4.470;2022-09-21T04:02:45;2.27;;;1.13;;
38972;SDS011;25333;50.762;4.470;2022-09-21T04:05:12;3.00;;;1.30;;
38972;SDS011;25333;50.762;4.470;2022-09-21T04:07:38;3.08;;;1.45;;
38972;SDS011;25333;50.762;4.470;2022-09-21T04:10:06;2.25;;;0.88;;
38972;SDS011;25333;50.762;4.470;2022-09-21T04:12:37;1.92;;;1.00;;
38972;SDS011;25333;50.762;4.470;2022-09-21T04:15:03;2.35;;;1.25;;
38972;SDS011;25333;50.762;4.470;2022-09-21T04:17:31;4.18;;;1.70;;
38972;SDS011;25333;50.762;4.470;2022-09-21T04:19:57;2.63;;;1.10;;
38972;SDS011;25333;50.762;4.470;2022-09-21T04:22:23;2.58;;;1.42;;
38972;SDS011;25333;50.762;4.470;2022-09-21T04:24:49;1.77;;;1.15;;
38972;SDS011;25333;50.762;4.470;2022-09-21T04:27:15;2.65;;;1.80;;
38972;SDS011;25333;50.762;4.470;2022-09-21T04:29:42;3.23;;;1.47;;
38972;SDS011;25333;50.762;4.470;2022-09-21T04:32:08;2.13;;;1.35;;
38972;SDS011;25333;50.762;4.470;2022-09-21T04:34:37;3.30;;;1.60;;
38972;SDS011;25333;50.762;4.470;2022-09-21T04:37:04;3.95;;;1.40;;
38972;SDS011;25333;50.762;4.470;2022-09-21T04:39:32;3.58;;;1.83;;
38972;SDS011;25333;50.762;4.470;2022-09-21T04:41:58;2.58;;;1.15;;
38972;SDS011;25333;50.762;4.470;2022-09-21T04:44:24;3.13;;;1.40;;
38972;SDS011;25333;50.762;4.470;2022-09-21T04:46:49;4.75;;;1.40;;
38972;SDS011;25333;50.762;4.470;2022-09-21T04:49:15;2.77;;;1.50;;
38972;SDS011;25333;50.762;4.470;2022-09-21T04:51:41;3.42;;;1.48;;
38972;SDS011;25333;50.762;4.470;2022-09-21T04:54:06;4.07;;;2.10;;
38972;SDS011;25333;50.762;4.470;2022-09-21T04:56:32;2.97;;;1.55;;
38972;SDS011;25333;50.762;4.470;2022-09-21T04:58:58;4.47;;;1.42;;
38972;SDS011;25333;50.762;4.470;2022-09-21T05:01:23;3.43;;;1.30;;
38972;SDS011;25333;50.762;4.470;2022-09-21T05:03:49;2.53;;;1.15;;
38972;SDS011;25333;50.762;4.470;2022-09-21T05:06:15;3.03;;;1.47;;
38972;SDS011;25333;50.762;4.470;2022-09-21T05:08:40;3.38;;;1.65;;
38972;SDS011;25333;50.762;4.470;2022-09-21T05:11:24;2.53;;;1.58;;
38972;SDS011;25333;50.762;4.470;2022-09-21T05:13:50;3.05;;;1.30;;
38972;SDS011;25333;50.762;4.470;2022-09-21T05:16:16;3.53;;;2.17;;
38972;SDS011;25333;50.762;4.470;2022-09-21T05:18:43;4.53;;;2.30;;
38972;SDS011;25333;50.762;4.470;2022-09-21T05:21:12;2.97;;;2.25;;
38972;SDS011;25333;50.762;4.470;2022-09-21T05:23:39;4.10;;;2.60;;
38972;SDS011;25333;50.762;4.470;2022-09-21T05:26:05;3.67;;;2.10;;
38972;SDS011;25333;50.762;4.470;2022-09-21T05:28:31;4.70;;;2.42;;
38972;SDS011;25333;50.762;4.470;2022-09-21T05:31:08;5.10;;;2.30;;
38972;SDS011;25333;50.762;4.470;2022-09-21T05:33:57;5.00;;;2.25;;
38972;SDS011;25333;50.762;4.470;2022-09-21T05:39:05;3.97;;;2.35;;
38972;SDS011;25333;50.762;4.470;2022-09-21T05:41:32;3.20;;;1.97;;
38972;SDS011;25333;50.762;4.470;2022-09-21T05:43:58;4.53;;;2.45;;
38972;SDS011;25333;50.762;4.470;2022-09-21T05:49:13;2.42;;;1.55;;
38972;SDS011;25333;50.762;4.470;2022-09-21T05:57:38;4.90;;;1.92;;
38972;SDS011;25333;50.762;4.470;2022-09-21T06:00:35;3.17;;;1.50;;
38972;SDS011;25333;50.762;4.470;2022-09-21T06:03:25;3.20;;;1.65;;
38972;SDS011;25333;50.762;4.470;2022-09-21T06:05:53;3.33;;;1.70;;
38972;SDS011;25333;50.762;4.470;2022-09-21T06:08:19;3.28;;;1.75;;
38972;SDS011;25333;50.762;4.470;2022-09-21T06:10:44;3.27;;;1.90;;
38972;SDS011;25333;50.762;4.470;2022-09-21T06:13:10;3.40;;;2.33;;
38972;SDS011;25333;50.762;4.470;2022-09-21T06:15:36;5.50;;;1.90;;
38972;SDS011;25333;50.762;4.470;2022-09-21T06:18:03;5.05;;;2.47;;
38972;SDS011;25333;50.762;4.470;2022-09-21T06:20:29;4.05;;;2.08;;
38972;SDS011;25333;50.762;4.470;2022-09-21T06:23:01;3.30;;;2.00;;
38972;SDS011;25333;50.762;4.470;2022-09-21T06:25:28;3.43;;;2.10;;
38972;SDS011;25333;50.762;4.470;2022-09-21T06:27:54;4.25;;;1.90;;
38972;SDS011;25333;50.762;4.470;2022-09-21T06:30:20;14.93;;;3.20;;
38972;SDS011;25333;50.762;4.470;2022-09-21T06:32:45;5.33;;;2.67;;
38972;SDS011;25333;50.762;4.470;2022-09-21T06:35:11;5.40;;;2.47;;
38972;SDS011;25333;50.762;4.470;2022-09-21T06:37:36;5.77;;;2.53;;
38972;SDS011;25333;50.762;4.470;2022-09-21T06:40:06;4.00;;;2.50;;
38972;SDS011;25333;50.762;4.470;2022-09-21T06:42:32;9.60;;;3.53;;
38972;SDS011;25333;50.762;4.470;2022-09-21T06:44:57;3.33;;;2.13;;
38972;SDS011;25333;50.762;4.470;2022-09-21T06:47:23;4.97;;;2.90;;
38972;SDS011;25333;50.762;4.470;2022-09-21T06:49:48;4.07;;;2.47;;
38972;SDS011;25333;50.762;4.470;2022-09-21T06:52:14;5.72;;;2.90;;
38972;SDS011;25333;50.762;4.470;2022-09-21T06:54:40;4.67;;;3.23;;
38972;SDS011;25333;50.762;4.470;2022-09-21T06:57:06;4.70;;;2.72;;
38972;SDS011;25333;50.762;4.470;2022-09-21T06:59:31;5.23;;;3.40;;
38972;SDS011;25333;50.762;4.470;2022-09-21T07:01:57;5.10;;;3.33;;
38972;SDS011;25333;50.762;4.470;2022-09-21T07:04:23;5.78;;;3.72;;
38972;SDS011;25333;50.762;4.470;2022-09-21T07:06:49;6.17;;;4.20;;
38972;SDS011;25333;50.762;4.470;2022-09-21T07:09:15;6.32;;;3.88;;
38972;SDS011;25333;50.762;4.470;2022-09-21T07:11:40;7.20;;;4.03;;
38972;SDS011;25333;50.762;4.470;2022-09-21T07:14:06;6.37;;;3.77;;
38972;SDS011;25333;50.762;4.470;2022-09-21T07:16:32;7.65;;;4.72;;
38972;SDS011;25333;50.762;4.470;2022-09-21T07:18:58;6.40;;;4.60;;
38972;SDS011;25333;50.762;4.470;2022-09-21T07:21:24;7.70;;;4.68;;
38972;SDS011;25333;50.762;4.470;2022-09-21T07:23:50;13.40;;;7.30;;
38972;SDS011;25333;50.762;4.470;2022-09-21T07:26:16;12.48;;;6.10;;
38972;SDS011;25333;50.762;4.470;2022-09-21T07:28:41;9.77;;;5.93;;
38972;SDS011;25333;50.762;4.470;2022-09-21T07:31:08;9.40;;;6.13;;
38972;SDS011;25333;50.762;4.470;2022-09-21T07:33:38;11.85;;;7.45;;
38972;SDS011;25333;50.762;4.470;2022-09-21T07:36:04;8.80;;;6.53;;
38972;SDS011;25333;50.762;4.470;2022-09-21T07:38:37;14.23;;;7.20;;
38972;SDS011;25333;50.762;4.470;2022-09-21T07:41:04;9.23;;;6.05;;
38972;SDS011;25333;50.762;4.470;2022-09-21T07:43:34;11.90;;;6.35;;
38972;SDS011;25333;50.762;4.470;2022-09-21T07:46:00;12.70;;;8.35;;
38972;SDS011;25333;50.762;4.470;2022-09-21T07:48:26;12.60;;;10.23;;
38972;SDS011;25333;50.762;4.470;2022-09-21T07:50:52;16.65;;;9.30;;
38972;SDS011;25333;50.762;4.470;2022-09-21T07:53:18;15.07;;;10.52;;
38972;SDS011;25333;50.762;4.470;2022-09-21T07:55:45;11.48;;;8.32;;
38972;SDS011;25333;50.762;4.470;2022-09-21T07:58:10;13.18;;;8.93;;
38972;SDS011;25333;50.762;4.470;2022-09-21T08:00:55;14.88;;;8.35;;
38972;SDS011;25333;50.762;4.470;2022-09-21T08:03:20;10.70;;;8.13;;
38972;SDS011;25333;50.762;4.470;2022-09-21T08:05:46;13.82;;;9.25;;
38972;SDS011;25333;50.762;4.470;2022-09-21T08:08:11;15.32;;;10.45;;
38972;SDS011;25333;50.762;4.470;2022-09-21T08:10:37;14.53;;;10.90;;
38972;SDS011;25333;50.762;4.470;2022-09-21T08:13:03;12.88;;;10.30;;
38972;SDS011;25333;50.762;4.470;2022-09-21T08:15:29;15.73;;;11.65;;
38972;SDS011;25333;50.762;4.470;2022-09-21T08:17:55;18.40;;;12.95;;
38972;SDS011;25333;50.762;4.470;2022-09-21T08:20:22;18.58;;;12.88;;
38972;SDS011;25333;50.762;4.470;2022-09-21T08:22:48;17.13;;;12.45;;
38972;SDS011;25333;50.762;4.470;2022-09-21T08:25:13;16.17;;;12.20;;
38972;SDS011;25333;50.762;4.470;2022-09-21T08:27:39;17.38;;;11.77;;
38972;SDS011;25333;50.762;4.470;2022-09-21T08:30:06;13.68;;;10.45;;
38972;SDS011;25333;50.762;4.470;2022-09-21T08:32:32;13.30;;;9.23;;
38972;SDS011;25333;50.762;4.470;2022-09-21T08:34:58;16.20;;;9.73;;
38972;SDS011;25333;50.762;4.470;2022-09-21T08:37:24;12.27;;;9.13;;
38972;SDS011;25333;50.762;4.470;2022-09-21T08:39:50;9.77;;;8.03;;
38972;SDS011;25333;50.762;4.470;2022-09-21T08:45:05;10.18;;;7.05;;
38972;SDS011;25333;50.762;4.470;2022-09-21T08:47:43;9.48;;;6.25;;
38972;SDS011;25333;50.762;4.470;2022-09-21T08:52:57;9.93;;;6.07;;
38972;SDS011;25333;50.762;4.470;2022-09-21T08:55:46;6.80;;;4.82;;
38972;SDS011;25333;50.762;4.470;2022-09-21T08:58:21;8.03;;;4.00;;
38972;SDS011;25333;50.762;4.470;2022-09-21T09:06:50;3.67;;;0.63;;
38972;SDS011;25333;50.762;4.470;2022-09-21T09:09:39;4.53;;;1.08;;
38972;SDS011;25333;50.762;4.470;2022-09-21T09:12:42;3.40;;;0.55;;
38972;SDS011;25333;50.762;4.470;2022-09-21T09:18:10;4.95;;;1.48;;
38972;SDS011;25333;50.762;4.470;2022-09-21T09:21:09;3.40;;;0.63;;
38972;SDS011;25333;50.762;4.470;2022-09-21T09:24:10;1.80;;;0.93;;
38972;SDS011;25333;50.762;4.470;2022-09-21T09:31:51;2.90;;;0.60;;
38972;SDS011;25333;50.762;4.470;2022-09-21T09:37:13;4.20;;;0.70;;
38972;SDS011;25333;50.762;4.470;2022-09-21T09:39:41;4.03;;;0.93;;
38972;SDS011;25333;50.762;4.470;2022-09-21T09:44:58;3.60;;;0.75;;
38972;SDS011;25333;50.762;4.470;2022-09-21T09:55:51;3.75;;;0.70;;
38972;SDS011;25333;50.762;4.470;2022-09-21T09:58:28;4.45;;;0.80;;
38972;SDS011;25333;50.762;4.470;2022-09-21T10:01:05;4.97;;;0.65;;
38972;SDS011;25333;50.762;4.470;2022-09-21T10:03:30;4.55;;;0.52;;
38972;SDS011;25333;50.762;4.470;2022-09-21T10:05:57;3.78;;;1.10;;
38972;SDS011;25333;50.762;4.470;2022-09-21T10:11:00;4.30;;;0.90;;
38972;SDS011;25333;50.762;4.470;2022-09-21T10:13:30;2.38;;;0.60;;
38972;SDS011;25333;50.762;4.470;2022-09-21T10:16:03;5.70;;;0.60;;
38972;SDS011;25333;50.762;4.470;2022-09-21T10:18:42;2.17;;;0.50;;
38972;SDS011;25333;50.762;4.470;2022-09-21T10:21:18;1.58;;;0.40;;
38972;SDS011;25333;50.762;4.470;2022-09-21T10:23:49;3.35;;;0.50;;
38972;SDS011;25333;50.762;4.470;2022-09-21T10:26:23;1.95;;;0.20;;
38972;SDS011;25333;50.762;4.470;2022-09-21T10:32:02;1.83;;;0.63;;
38972;SDS011;25333;50.762;4.470;2022-09-21T10:34:31;3.08;;;0.65;;
38972;SDS011;25333;50.762;4.470;2022-09-21T10:36:59;1.63;;;0.25;;
38972;SDS011;25333;50.762;4.470;2022-09-21T10:39:27;1.65;;;0.30;;
38972;SDS011;25333;50.762;4.470;2022-09-21T10:42:02;1.60;;;0.30;;
38972;SDS011;25333;50.762;4.470;2022-09-21T10:44:41;3.03;;;0.38;;
38972;SDS011;25333;50.762;4.470;2022-09-21T10:47:15;0.93;;;0.22;;
38972;SDS011;25333;50.762;4.470;2022-09-21T10:49:50;2.88;;;0.40;;
38972;SDS011;25333;50.762;4.470;2022-09-21T10:52:19;3.28;;;0.40;;
38972;SDS011;25333;50.762;4.470;2022-09-21T10:54:47;1.88;;;0.47;;
38972;SDS011;25333;50.762;4.470;2022-09-21T10:57:16;1.42;;;0.40;;
38972;SDS011;25333;50.762;4.470;2022-09-21T10:59:44;2.42;;;0.40;;
38972;SDS011;25333;50.762;4.470;2022-09-21T11:02:27;2.13;;;0.20;;
38972;SDS011;25333;50.762;4.470;2022-09-21T11:04:58;1.83;;;0.30;;
38972;SDS011;25333;50.762;4.470;2022-09-21T11:07:51;1.90;;;0.40;;
38972;SDS011;25333;50.762;4.470;2022-09-21T11:10:37;2.53;;;0.38;;
38972;SDS011;25333;50.762;4.470;2022-09-21T11:22:08;2.45;;;0.50;;
38972;SDS011;25333;50.762;4.470;2022-09-21T11:25:03;1.65;;;0.30;;
38972;SDS011;25333;50.762;4.470;2022-09-21T11:27:41;1.00;;;0.10;;
38972;SDS011;25333;50.762;4.470;2022-09-21T11:30:17;1.30;;;0.40;;
38972;SDS011;25333;50.762;4.470;2022-09-21T11:41:00;1.75;;;0.30;;
38972;SDS011;25333;50.762;4.470;2022-09-21T11:44:00;2.05;;;0.40;;
38972;SDS011;25333;50.762;4.470;2022-09-21T11:46:32;2.10;;;0.40;;
38972;SDS011;25333;50.762;4.470;2022-09-21T11:58:10;1.10;;;0.40;;
38972;SDS011;25333;50.762;4.470;2022-09-21T12:06:16;1.93;;;0.43;;
38972;SDS011;25333;50.762;4.470;2022-09-21T12:12:26;1.67;;;0.30;;
38972;SDS011;25333;50.762;4.470;2022-09-21T12:15:19;2.05;;;0.40;;
38972;SDS011;25333;50.762;4.470;2022-09-21T12:23:46;3.05;;;0.40;;
38972;SDS011;25333;50.762;4.470;2022-09-21T12:26:26;1.95;;;0.22;;
38972;SDS011;25333;50.762;4.470;2022-09-21T12:29:10;1.67;;;0.40;;
38972;SDS011;25333;50.762;4.470;2022-09-21T12:31:38;3.22;;;0.50;;
38972;SDS011;25333;50.762;4.470;2022-09-21T12:34:18;1.38;;;0.47;;
38972;SDS011;25333;50.762;4.470;2022-09-21T12:36:53;2.05;;;0.35;;
38972;SDS011;25333;50.762;4.470;2022-09-21T12:39:56;3.05;;;0.57;;
38972;SDS011;25333;50.762;4.470;2022-09-21T12:45:13;2.15;;;0.40;;
38972;SDS011;25333;50.762;4.470;2022-09-21T12:53:50;3.10;;;0.50;;
38972;SDS011;25333;50.762;4.470;2022-09-21T12:59:05;2.25;;;0.43;;
38972;SDS011;25333;50.762;4.470;2022-09-21T13:07:18;2.63;;;0.30;;
38972;SDS011;25333;50.762;4.470;2022-09-21T13:10:05;1.95;;;0.50;;
38972;SDS011;25333;50.762;4.470;2022-09-21T13:12:39;1.83;;;0.30;;
38972;SDS011;25333;50.762;4.470;2022-09-21T13:15:24;2.40;;;0.40;;
38972;SDS011;25333;50.762;4.470;2022-09-21T13:17:58;2.72;;;0.28;;
38972;SDS011;25333;50.762;4.470;2022-09-21T13:20:31;1.08;;;0.30;;
38972;SDS011;25333;50.762;4.470;2022-09-21T13:23:03;2.30;;;0.30;;
38972;SDS011;25333;50.762;4.470;2022-09-21T13:25:30;1.40;;;0.20;;
38972;SDS011;25333;50.762;4.470;2022-09-21T13:30:47;1.13;;;0.30;;
38972;SDS011;25333;50.762;4.470;2022-09-21T13:38:27;1.33;;;0.20;;
38972;SDS011;25333;50.762;4.470;2022-09-21T13:43:23;1.35;;;0.40;;
38972;SDS011;25333;50.762;4.470;2022-09-21T13:46:10;1.92;;;0.32;;
38972;SDS011;25333;50.762;4.470;2022-09-21T13:54:28;1.95;;;0.32;;
38972;SDS011;25333;50.762;4.470;2022-09-21T13:56:59;1.70;;;0.50;;
38972;SDS011;25333;50.762;4.470;2022-09-21T13:59:46;2.67;;;0.68;;
38972;SDS011;25333;50.762;4.470;2022-09-21T14:02:22;4.70;;;0.65;;
38972;SDS011;25333;50.762;4.470;2022-09-21T14:04:55;2.08;;;0.43;;
38972;SDS011;25333;50.762;4.470;2022-09-21T14:07:41;1.33;;;0.30;;
38972;SDS011;25333;50.762;4.470;2022-09-21T14:10:15;1.02;;;0.20;;
38972;SDS011;25333;50.762;4.470;2022-09-21T14:12:43;6.47;;;0.40;;
38972;SDS011;25333;50.762;4.470;2022-09-21T14:17:43;0.67;;;0.20;;
38972;SDS011;25333;50.762;4.470;2022-09-21T14:20:31;1.07;;;0.30;;
38972;SDS011;25333;50.762;4.470;2022-09-21T14:31:00;1.73;;;0.38;;
38972;SDS011;25333;50.762;4.470;2022-09-21T14:33:32;1.40;;;0.20;;
38972;SDS011;25333;50.762;4.470;2022-09-21T14:36:07;1.20;;;0.28;;
38972;SDS011;25333;50.762;4.470;2022-09-21T14:38:42;3.55;;;0.50;;
38972;SDS011;25333;50.762;4.470;2022-09-21T14:41:14;2.00;;;0.10;;
38972;SDS011;25333;50.762;4.470;2022-09-21T14:43:46;2.15;;;0.30;;
38972;SDS011;25333;50.762;4.470;2022-09-21T14:46:23;2.50;;;0.30;;
38972;SDS011;25333;50.762;4.470;2022-09-21T14:49:21;1.55;;;0.28;;
38972;SDS011;25333;50.762;4.470;2022-09-21T14:52:20;1.92;;;0.20;;
38972;SDS011;25333;50.762;4.470;2022-09-21T14:54:50;1.80;;;0.40;;
38972;SDS011;25333;50.762;4.470;2022-09-21T15:00:13;0.77;;;0.10;;
38972;SDS011;25333;50.762;4.470;2022-09-21T15:02:46;0.55;;;0.10;;
38972;SDS011;25333;50.762;4.470;2022-09-21T15:05:28;1.27;;;0.20;;
38972;SDS011;25333;50.762;4.470;2022-09-21T15:08:50;1.20;;;0.30;;
38972;SDS011;25333;50.762;4.470;2022-09-21T15:11:25;2.20;;;0.38;;
38972;SDS011;25333;50.762;4.470;2022-09-21T15:16:46;1.23;;;0.20;;
38972;SDS011;25333;50.762;4.470;2022-09-21T15:19:57;1.20;;;0.30;;
38972;SDS011;25333;50.762;4.470;2022-09-21T15:24:49;1.30;;;0.40;;
38972;SDS011;25333;50.762;4.470;2022-09-21T15:27:17;0.30;;;0.20;;
38972;SDS011;25333;50.762;4.470;2022-09-21T15:29:48;1.55;;;0.40;;
38972;SDS011;25333;50.762;4.470;2022-09-21T15:35:21;1.80;;;0.22;;
38972;SDS011;25333;50.762;4.470;2022-09-21T15:37:49;1.90;;;0.20;;
38972;SDS011;25333;50.762;4.470;2022-09-21T15:40:20;2.97;;;0.25;;
38972;SDS011;25333;50.762;4.470;2022-09-21T15:43:05;1.13;;;0.20;;
38972;SDS011;25333;50.762;4.470;2022-09-21T15:48:31;0.85;;;0.30;;
38972;SDS011;25333;50.762;4.470;2022-09-21T15:51:07;1.63;;;0.30;;
38972;SDS011;25333;50.762;4.470;2022-09-21T15:53:44;1.45;;;0.30;;
38972;SDS011;25333;50.762;4.470;2022-09-21T15:56:19;1.98;;;0.40;;
38972;SDS011;25333;50.762;4.470;2022-09-21T15:58:48;1.07;;;0.37;;
38972;SDS011;25333;50.762;4.470;2022-09-21T16:01:15;2.40;;;0.27;;
38972;SDS011;25333;50.762;4.470;2022-09-21T16:03:45;2.60;;;0.30;;
38972;SDS011;25333;50.762;4.470;2022-09-21T16:08:59;1.70;;;0.10;;
38972;SDS011;25333;50.762;4.470;2022-09-21T16:11:51;1.95;;;0.20;;
38972;SDS011;25333;50.762;4.470;2022-09-21T16:14:17;2.20;;;0.30;;
38972;SDS011;25333;50.762;4.470;2022-09-21T16:22:38;0.88;;;0.30;;
38972;SDS011;25333;50.762;4.470;2022-09-21T16:25:13;0.88;;;0.32;;
38972;SDS011;25333;50.762;4.470;2022-09-21T16:28:43;1.20;;;0.30;;
38972;SDS011;25333;50.762;4.470;2022-09-21T16:38:58;1.90;;;0.10;;
38972;SDS011;25333;50.762;4.470;2022-09-21T16:41:32;2.45;;;0.60;;
38972;SDS011;25333;50.762;4.470;2022-09-21T16:44:13;2.80;;;0.63;;
38972;SDS011;25333;50.762;4.470;2022-09-21T16:46:43;2.38;;;0.35;;
38972;SDS011;25333;50.762;4.470;2022-09-21T16:49:11;3.80;;;0.50;;
38972;SDS011;25333;50.762;4.470;2022-09-21T16:51:42;1.25;;;0.20;;
38972;SDS011;25333;50.762;4.470;2022-09-21T16:54:10;2.15;;;0.40;;
38972;SDS011;25333;50.762;4.470;2022-09-21T16:56:36;1.70;;;0.50;;
38972;SDS011;25333;50.762;4.470;2022-09-21T16:59:04;1.27;;;0.30;;
38972;SDS011;25333;50.762;4.470;2022-09-21T17:01:40;1.90;;;0.38;;
38972;SDS011;25333;50.762;4.470;2022-09-21T17:04:07;1.83;;;0.45;;
38972;SDS011;25333;50.762;4.470;2022-09-21T17:06:37;4.30;;;0.80;;
38972;SDS011;25333;50.762;4.470;2022-09-21T17:11:50;0.95;;;0.17;;
38972;SDS011;25333;50.762;4.470;2022-09-21T17:14:16;1.67;;;0.40;;
38972;SDS011;25333;50.762;4.470;2022-09-21T17:17:06;2.65;;;0.20;;
38972;SDS011;25333;50.762;4.470;2022-09-21T17:19:41;1.90;;;0.60;;
38972;SDS011;25333;50.762;4.470;2022-09-21T17:22:08;3.05;;;0.75;;
38972;SDS011;25333;50.762;4.470;2022-09-21T17:24:41;1.70;;;0.75;;
38972;SDS011;25333;50.762;4.470;2022-09-21T17:27:14;2.80;;;0.73;;
38972;SDS011;25333;50.762;4.470;2022-09-21T17:29:43;2.78;;;0.60;;
38972;SDS011;25333;50.762;4.470;2022-09-21T17:32:17;6.22;;;1.27;;
38972;SDS011;25333;50.762;4.470;2022-09-21T17:34:44;2.47;;;0.73;;
38972;SDS011;25333;50.762;4.470;2022-09-21T17:37:10;5.55;;;1.70;;
38972;SDS011;25333;50.762;4.470;2022-09-21T17:39:36;2.80;;;1.00;;
38972;SDS011;25333;50.762;4.470;2022-09-21T17:42:11;3.25;;;1.33;;
38972;SDS011;25333;50.762;4.470;2022-09-21T17:44:53;3.75;;;1.65;;
38972;SDS011;25333;50.762;4.470;2022-09-21T17:47:26;3.92;;;2.17;;
38972;SDS011;25333;50.762;4.470;2022-09-21T17:49:53;5.75;;;2.88;;
38972;SDS011;25333;50.762;4.470;2022-09-21T17:52:26;5.25;;;3.47;;
38972;SDS011;25333;50.762;4.470;2022-09-21T17:55:10;6.80;;;4.30;;
38972;SDS011;25333;50.762;4.470;2022-09-21T17:57:50;7.78;;;5.45;;
38972;SDS011;25333;50.762;4.470;2022-09-21T18:03:30;7.70;;;4.78;;
38972;SDS011;25333;50.762;4.470;2022-09-21T18:06:00;6.38;;;4.45;;
38972;SDS011;25333;50.762;4.470;2022-09-21T18:08:26;10.10;;;4.68;;
38972;SDS011;25333;50.762;4.470;2022-09-21T18:10:56;8.35;;;4.47;;
38972;SDS011;25333;50.762;4.470;2022-09-21T18:16:48;8.10;;;4.03;;
38972;SDS011;25333;50.762;4.470;2022-09-21T18:22:26;8.98;;;4.13;;
38972;SDS011;25333;50.762;4.470;2022-09-21T18:25:05;8.38;;;4.55;;
38972;SDS011;25333;50.762;4.470;2022-09-21T18:27:39;7.50;;;4.53;;
38972;SDS011;25333;50.762;4.470;2022-09-21T18:30:09;9.30;;;4.20;;
38972;SDS011;25333;50.762;4.470;2022-09-21T18:35:32;5.55;;;3.15;;
38972;SDS011;25333;50.762;4.470;2022-09-21T18:41:17;5.60;;;3.40;;
38972;SDS011;25333;50.762;4.470;2022-09-21T18:49:27;3.53;;;1.90;;
38972;SDS011;25333;50.762;4.470;2022-09-21T18:54:44;2.97;;;1.63;;